Archival Weather

Vermilion Rgnl

Danville, Illinois (KDNV)

Report from: Tuesday, March 26, 2024 8:15 PM CDT
Current time: Sunday, July 14, 2024 5:33 AM CDT

Current weather – Weather history – Daily summaries
Weather forecast

Temperature4.7°C (40.5°F)
Wind chill0.4°C (32.8°F)
Dew point0.7°C (33.3°F)
Winds 12 kts (6.2 m/s, 13.8 mph) West-Southwest (250°)
Wind gusts 25 kts (12.9 m/s, 28.8 mph)
Visibility10 mi. (16.1 km)
Clouds Ceiling: Overcast 2,100 ft. (640 m)
Altimeter29.80 in.Hg (1009 mB)
Relative humidity75 %
Density altitude-1,009 ft. (-307 m)
Remarks Fully automated report
Automated weather observing station with precipitation discriminator
Flight conditions Marginal Visual Meteorological Conditions
Raw dataKDNV 270115Z AUTO 25012G25KT 10SM OVC021 05/01 A2980 RMK AO2 T00470007
An error has occurred. This application may no longer respond until reloaded. Reload 🗙